sensor_id;sensor_type;location;lat;lon;timestamp;temperature;humidity
67379;DHT22;54262;44.642;-0.974;2024-01-10T00:00:23;4.60;99.90
67379;DHT22;54262;44.642;-0.974;2024-01-10T00:02:48;4.70;99.90
67379;DHT22;54262;44.642;-0.974;2024-01-10T00:05:14;4.70;99.90
67379;DHT22;54262;44.642;-0.974;2024-01-10T00:07:39;4.70;99.90
67379;DHT22;54262;44.642;-0.974;2024-01-10T00:10:05;4.70;99.90
67379;DHT22;54262;44.642;-0.974;2024-01-10T00:12:31;4.70;99.90
67379;DHT22;54262;44.642;-0.974;2024-01-10T00:15:01;4.70;99.90
67379;DHT22;54262;44.642;-0.974;2024-01-10T00:17:27;5.00;99.90
67379;DHT22;54262;44.642;-0.974;2024-01-10T00:19:52;4.90;99.90
67379;DHT22;54262;44.642;-0.974;2024-01-10T00:22:18;5.10;99.90
67379;DHT22;54262;44.642;-0.974;2024-01-10T00:24:43;5.40;99.90
67379;DHT22;54262;44.642;-0.974;2024-01-10T00:27:12;5.10;99.90
67379;DHT22;54262;44.642;-0.974;2024-01-10T00:29:37;5.00;99.90
67379;DHT22;54262;44.642;-0.974;2024-01-10T00:32:03;4.90;99.90
67379;DHT22;54262;44.642;-0.974;2024-01-10T00:34:29;5.00;99.90
67379;DHT22;54262;44.642;-0.974;2024-01-10T00:36:55;5.00;99.90
67379;DHT22;54262;44.642;-0.974;2024-01-10T00:39:20;5.00;99.90
67379;DHT22;54262;44.642;-0.974;2024-01-10T00:41:48;5.00;99.90
67379;DHT22;54262;44.642;-0.974;2024-01-10T00:44:14;4.90;99.90
67379;DHT22;54262;44.642;-0.974;2024-01-10T00:46:39;5.00;99.90
67379;DHT22;54262;44.642;-0.974;2024-01-10T00:49:07;5.10;99.90
67379;DHT22;54262;44.642;-0.974;2024-01-10T00:51:32;5.20;99.90
67379;DHT22;54262;44.642;-0.974;2024-01-10T00:54:01;5.30;99.90
67379;DHT22;54262;44.642;-0.974;2024-01-10T00:56:26;5.30;99.90
67379;DHT22;54262;44.642;-0.974;2024-01-10T00:58:52;5.30;99.90
67379;DHT22;54262;44.642;-0.974;2024-01-10T01:01:23;5.20;99.90
67379;DHT22;54262;44.642;-0.974;2024-01-10T01:03:48;5.30;99.90
67379;DHT22;54262;44.642;-0.974;2024-01-10T01:06:14;5.40;99.90
67379;DHT22;54262;44.642;-0.974;2024-01-10T01:08:40;5.40;99.90
67379;DHT22;54262;44.642;-0.974;2024-01-10T01:11:05;5.40;99.90
67379;DHT22;54262;44.642;-0.974;2024-01-10T01:13:31;5.60;99.90
67379;DHT22;54262;44.642;-0.974;2024-01-10T01:15:56;5.60;99.90
67379;DHT22;54262;44.642;-0.974;2024-01-10T01:18:22;6.00;99.90
67379;DHT22;54262;44.642;-0.974;2024-01-10T01:20:47;5.70;99.90
67379;DHT22;54262;44.642;-0.974;2024-01-10T01:23:15;5.60;99.90
67379;DHT22;54262;44.642;-0.974;2024-01-10T01:25:41;5.70;99.90
67379;DHT22;54262;44.642;-0.974;2024-01-10T01:28:06;5.60;99.90
67379;DHT22;54262;44.642;-0.974;2024-01-10T01:30:32;5.60;99.90
67379;DHT22;54262;44.642;-0.974;2024-01-10T01:32:57;5.60;99.90
67379;DHT22;54262;44.642;-0.974;2024-01-10T01:35:23;5.70;99.90
67379;DHT22;54262;44.642;-0.974;2024-01-10T01:37:49;5.90;99.90
67379;DHT22;54262;44.642;-0.974;2024-01-10T01:40:14;5.80;99.90
67379;DHT22;54262;44.642;-0.974;2024-01-10T01:42:42;5.80;99.90
67379;DHT22;54262;44.642;-0.974;2024-01-10T01:45:09;5.90;99.90
67379;DHT22;54262;44.642;-0.974;2024-01-10T01:47:34;5.80;99.90
67379;DHT22;54262;44.642;-0.974;2024-01-10T01:50:02;5.90;99.90
67379;DHT22;54262;44.642;-0.974;2024-01-10T01:52:31;5.90;99.90
67379;DHT22;54262;44.642;-0.974;2024-01-10T01:54:56;5.90;99.90
67379;DHT22;54262;44.642;-0.974;2024-01-10T01:57:22;6.10;99.90
67379;DHT22;54262;44.642;-0.974;2024-01-10T01:59:48;6.30;99.90
67379;DHT22;54262;44.642;-0.974;2024-01-10T02:02:13;6.40;99.90
67379;DHT22;54262;44.642;-0.974;2024-01-10T02:04:41;6.40;99.90
67379;DHT22;54262;44.642;-0.974;2024-01-10T02:07:07;6.10;99.90
67379;DHT22;54262;44.642;-0.974;2024-01-10T02:09:33;6.10;99.90
67379;DHT22;54262;44.642;-0.974;2024-01-10T02:11:58;6.10;99.90
67379;DHT22;54262;44.642;-0.974;2024-01-10T02:14:24;6.10;99.90
67379;DHT22;54262;44.642;-0.974;2024-01-10T02:16:49;6.20;99.90
67379;DHT22;54262;44.642;-0.974;2024-01-10T02:19:21;6.40;99.90
67379;DHT22;54262;44.642;-0.974;2024-01-10T02:21:47;6.50;99.90
67379;DHT22;54262;44.642;-0.974;2024-01-10T02:24:13;6.40;99.90
67379;DHT22;54262;44.642;-0.974;2024-01-10T02:26:39;6.50;99.90
67379;DHT22;54262;44.642;-0.974;2024-01-10T02:29:05;6.40;99.90
67379;DHT22;54262;44.642;-0.974;2024-01-10T02:31:30;6.40;99.90
67379;DHT22;54262;44.642;-0.974;2024-01-10T02:33:56;6.20;99.90
67379;DHT22;54262;44.642;-0.974;2024-01-10T02:36:21;6.10;99.90
67379;DHT22;54262;44.642;-0.974;2024-01-10T02:38:47;6.20;99.90
67379;DHT22;54262;44.642;-0.974;2024-01-10T02:41:13;6.20;99.90
67379;DHT22;54262;44.642;-0.974;2024-01-10T02:43:41;6.40;99.90
67379;DHT22;54262;44.642;-0.974;2024-01-10T02:46:09;6.40;99.90
67379;DHT22;54262;44.642;-0.974;2024-01-10T02:48:35;6.40;99.90
67379;DHT22;54262;44.642;-0.974;2024-01-10T02:51:02;6.50;99.90
67379;DHT22;54262;44.642;-0.974;2024-01-10T02:53:28;6.50;99.90
67379;DHT22;54262;44.642;-0.974;2024-01-10T02:55:55;6.50;99.90
67379;DHT22;54262;44.642;-0.974;2024-01-10T02:58:20;6.40;99.90
67379;DHT22;54262;44.642;-0.974;2024-01-10T03:00:47;6.30;99.90
67379;DHT22;54262;44.642;-0.974;2024-01-10T03:03:13;6.20;99.90
67379;DHT22;54262;44.642;-0.974;2024-01-10T03:05:39;6.20;99.90
67379;DHT22;54262;44.642;-0.974;2024-01-10T03:08:04;6.10;99.90
67379;DHT22;54262;44.642;-0.974;2024-01-10T03:10:31;6.10;99.90
67379;DHT22;54262;44.642;-0.974;2024-01-10T03:12:57;6.00;99.90
67379;DHT22;54262;44.642;-0.974;2024-01-10T03:15:22;6.10;99.90
67379;DHT22;54262;44.642;-0.974;2024-01-10T03:17:48;6.10;99.90
67379;DHT22;54262;44.642;-0.974;2024-01-10T03:20:17;6.00;99.90
67379;DHT22;54262;44.642;-0.974;2024-01-10T03:22:42;6.00;99.90
67379;DHT22;54262;44.642;-0.974;2024-01-10T03:25:08;5.90;99.90
67379;DHT22;54262;44.642;-0.974;2024-01-10T03:27:33;5.90;99.90
67379;DHT22;54262;44.642;-0.974;2024-01-10T03:29:59;5.90;99.90
67379;DHT22;54262;44.642;-0.974;2024-01-10T03:32:24;6.00;99.90
67379;DHT22;54262;44.642;-0.974;2024-01-10T03:34:50;6.00;99.90
67379;DHT22;54262;44.642;-0.974;2024-01-10T03:37:19;6.10;99.90
67379;DHT22;54262;44.642;-0.974;2024-01-10T03:39:45;6.10;99.90
67379;DHT22;54262;44.642;-0.974;2024-01-10T03:42:10;6.20;99.90
67379;DHT22;54262;44.642;-0.974;2024-01-10T03:44:38;6.20;99.90
67379;DHT22;54262;44.642;-0.974;2024-01-10T03:47:04;6.10;99.90
67379;DHT22;54262;44.642;-0.974;2024-01-10T03:49:30;6.10;99.90
67379;DHT22;54262;44.642;-0.974;2024-01-10T03:51:58;6.10;99.90
67379;DHT22;54262;44.642;-0.974;2024-01-10T03:54:24;6.30;99.90
67379;DHT22;54262;44.642;-0.974;2024-01-10T03:56:49;6.30;99.90
67379;DHT22;54262;44.642;-0.974;2024-01-10T03:59:15;6.20;99.90
67379;DHT22;54262;44.642;-0.974;2024-01-10T04:01:40;6.10;99.90
67379;DHT22;54262;44.642;-0.974;2024-01-10T04:04:06;6.00;99.90
67379;DHT22;54262;44.642;-0.974;2024-01-10T04:06:31;5.90;99.90
67379;DHT22;54262;44.642;-0.974;2024-01-10T04:08:57;5.80;99.90
67379;DHT22;54262;44.642;-0.974;2024-01-10T04:11:23;6.00;99.90
67379;DHT22;54262;44.642;-0.974;2024-01-10T04:13:48;5.90;99.90
67379;DHT22;54262;44.642;-0.974;2024-01-10T04:16:14;5.90;99.90
67379;DHT22;54262;44.642;-0.974;2024-01-10T04:18:42;5.90;99.90
67379;DHT22;54262;44.642;-0.974;2024-01-10T04:21:07;5.90;99.90
67379;DHT22;54262;44.642;-0.974;2024-01-10T04:23:33;5.80;99.90
67379;DHT22;54262;44.642;-0.974;2024-01-10T04:26:01;5.80;99.90
67379;DHT22;54262;44.642;-0.974;2024-01-10T04:28:28;5.80;99.90
67379;DHT22;54262;44.642;-0.974;2024-01-10T04:30:53;5.80;99.90
67379;DHT22;54262;44.642;-0.974;2024-01-10T04:33:19;5.80;99.90
67379;DHT22;54262;44.642;-0.974;2024-01-10T04:35:45;6.00;99.90
67379;DHT22;54262;44.642;-0.974;2024-01-10T04:38:10;5.90;99.90
67379;DHT22;54262;44.642;-0.974;2024-01-10T04:40:36;6.00;99.90
67379;DHT22;54262;44.642;-0.974;2024-01-10T04:43:01;5.80;99.90
67379;DHT22;54262;44.642;-0.974;2024-01-10T04:45:29;5.90;99.90
67379;DHT22;54262;44.642;-0.974;2024-01-10T04:47:55;6.00;99.90
67379;DHT22;54262;44.642;-0.974;2024-01-10T04:50:20;5.90;99.90
67379;DHT22;54262;44.642;-0.974;2024-01-10T04:52:48;5.80;99.90
67379;DHT22;54262;44.642;-0.974;2024-01-10T04:55:13;5.70;99.90
67379;DHT22;54262;44.642;-0.974;2024-01-10T04:57:39;5.80;99.90
67379;DHT22;54262;44.642;-0.974;2024-01-10T05:00:05;5.70;99.90
67379;DHT22;54262;44.642;-0.974;2024-01-10T05:02:30;5.70;99.90
67379;DHT22;54262;44.642;-0.974;2024-01-10T05:04:56;5.70;99.90
67379;DHT22;54262;44.642;-0.974;2024-01-10T05:07:21;5.70;99.90
67379;DHT22;54262;44.642;-0.974;2024-01-10T05:09:47;5.60;99.90
67379;DHT22;54262;44.642;-0.974;2024-01-10T05:12:12;5.60;99.90
67379;DHT22;54262;44.642;-0.974;2024-01-10T05:14:38;5.70;99.90
67379;DHT22;54262;44.642;-0.974;2024-01-10T05:17:04;5.70;99.90
67379;DHT22;54262;44.642;-0.974;2024-01-10T05:19:29;5.70;99.90
67379;DHT22;54262;44.642;-0.974;2024-01-10T05:21:55;5.60;99.90
67379;DHT22;54262;44.642;-0.974;2024-01-10T05:24:21;5.60;99.90
67379;DHT22;54262;44.642;-0.974;2024-01-10T05:26:46;5.50;99.90
67379;DHT22;54262;44.642;-0.974;2024-01-10T05:29:12;5.70;99.90
67379;DHT22;54262;44.642;-0.974;2024-01-10T05:31:37;5.70;99.90
67379;DHT22;54262;44.642;-0.974;2024-01-10T05:34:03;5.60;99.90
67379;DHT22;54262;44.642;-0.974;2024-01-10T05:36:30;5.60;99.90
67379;DHT22;54262;44.642;-0.974;2024-01-10T05:38:55;5.50;99.90
67379;DHT22;54262;44.642;-0.974;2024-01-10T05:41:21;5.80;99.90
67379;DHT22;54262;44.642;-0.974;2024-01-10T05:43:47;5.80;99.90
67379;DHT22;54262;44.642;-0.974;2024-01-10T05:46:14;5.60;99.90
67379;DHT22;54262;44.642;-0.974;2024-01-10T05:48:41;5.60;99.90
67379;DHT22;54262;44.642;-0.974;2024-01-10T05:51:07;5.80;99.90
67379;DHT22;54262;44.642;-0.974;2024-01-10T05:53:34;5.90;99.90
67379;DHT22;54262;44.642;-0.974;2024-01-10T05:56:00;5.70;99.90
67379;DHT22;54262;44.642;-0.974;2024-01-10T05:58:26;5.80;99.90
67379;DHT22;54262;44.642;-0.974;2024-01-10T06:00:51;5.80;99.90
67379;DHT22;54262;44.642;-0.974;2024-01-10T06:03:17;5.80;99.90
67379;DHT22;54262;44.642;-0.974;2024-01-10T06:05:42;5.90;99.90
67379;DHT22;54262;44.642;-0.974;2024-01-10T06:08:08;5.90;99.90
67379;DHT22;54262;44.642;-0.974;2024-01-10T06:10:33;6.20;99.90
67379;DHT22;54262;44.642;-0.974;2024-01-10T06:12:59;6.20;99.90
67379;DHT22;54262;44.642;-0.974;2024-01-10T06:15:25;6.10;99.90
67379;DHT22;54262;44.642;-0.974;2024-01-10T06:17:51;6.10;99.90
67379;DHT22;54262;44.642;-0.974;2024-01-10T06:20:16;5.90;99.90
67379;DHT22;54262;44.642;-0.974;2024-01-10T06:22:42;5.90;99.90
67379;DHT22;54262;44.642;-0.974;2024-01-10T06:25:07;5.90;99.90
67379;DHT22;54262;44.642;-0.974;2024-01-10T06:27:34;6.00;99.90
67379;DHT22;54262;44.642;-0.974;2024-01-10T06:29:59;6.10;99.90
67379;DHT22;54262;44.642;-0.974;2024-01-10T06:32:28;6.00;99.90
67379;DHT22;54262;44.642;-0.974;2024-01-10T06:34:53;6.10;99.90
67379;DHT22;54262;44.642;-0.974;2024-01-10T06:37:19;6.10;99.90
67379;DHT22;54262;44.642;-0.974;2024-01-10T06:39:44;6.50;99.90
67379;DHT22;54262;44.642;-0.974;2024-01-10T06:42:10;6.40;99.90
67379;DHT22;54262;44.642;-0.974;2024-01-10T06:44:37;6.20;99.90
67379;DHT22;54262;44.642;-0.974;2024-01-10T06:47:05;6.10;99.90
67379;DHT22;54262;44.642;-0.974;2024-01-10T06:49:30;6.20;99.90
67379;DHT22;54262;44.642;-0.974;2024-01-10T06:51:56;6.20;99.90
67379;DHT22;54262;44.642;-0.974;2024-01-10T06:54:24;6.30;99.90
67379;DHT22;54262;44.642;-0.974;2024-01-10T06:56:52;6.30;99.90
67379;DHT22;54262;44.642;-0.974;2024-01-10T06:59:18;6.30;99.90
67379;DHT22;54262;44.642;-0.974;2024-01-10T07:01:50;6.20;99.90
67379;DHT22;54262;44.642;-0.974;2024-01-10T07:04:16;6.20;99.90
67379;DHT22;54262;44.642;-0.974;2024-01-10T07:06:43;6.00;99.90
67379;DHT22;54262;44.642;-0.974;2024-01-10T07:09:08;6.00;99.90
67379;DHT22;54262;44.642;-0.974;2024-01-10T07:11:34;6.00;99.90
67379;DHT22;54262;44.642;-0.974;2024-01-10T07:14:00;5.90;99.90
67379;DHT22;54262;44.642;-0.974;2024-01-10T07:16:26;5.90;99.90
67379;DHT22;54262;44.642;-0.974;2024-01-10T07:18:51;6.00;99.90
67379;DHT22;54262;44.642;-0.974;2024-01-10T07:21:17;6.10;99.90
67379;DHT22;54262;44.642;-0.974;2024-01-10T07:23:42;6.00;99.90
67379;DHT22;54262;44.642;-0.974;2024-01-10T07:26:08;5.90;99.90
67379;DHT22;54262;44.642;-0.974;2024-01-10T07:28:34;6.00;99.90
67379;DHT22;54262;44.642;-0.974;2024-01-10T07:30:59;5.90;99.90
67379;DHT22;54262;44.642;-0.974;2024-01-10T07:33:27;5.80;99.90
67379;DHT22;54262;44.642;-0.974;2024-01-10T07:35:57;5.90;99.90
67379;DHT22;54262;44.642;-0.974;2024-01-10T07:38:22;5.80;99.90
67379;DHT22;54262;44.642;-0.974;2024-01-10T07:40:48;5.80;99.90
67379;DHT22;54262;44.642;-0.974;2024-01-10T07:43:13;5.70;99.90
67379;DHT22;54262;44.642;-0.974;2024-01-10T07:45:39;5.90;99.90
67379;DHT22;54262;44.642;-0.974;2024-01-10T07:48:07;5.90;99.90
67379;DHT22;54262;44.642;-0.974;2024-01-10T07:50:32;5.70;99.90
67379;DHT22;54262;44.642;-0.974;2024-01-10T07:52:58;5.80;99.90
67379;DHT22;54262;44.642;-0.974;2024-01-10T07:55:26;6.00;99.90
67379;DHT22;54262;44.642;-0.974;2024-01-10T07:57:54;5.90;99.90
67379;DHT22;54262;44.642;-0.974;2024-01-10T08:00:23;6.00;99.90
67379;DHT22;54262;44.642;-0.974;2024-01-10T08:02:48;5.90;99.90
67379;DHT22;54262;44.642;-0.974;2024-01-10T08:05:15;5.90;99.90
67379;DHT22;54262;44.642;-0.974;2024-01-10T08:07:41;5.90;99.90
67379;DHT22;54262;44.642;-0.974;2024-01-10T08:10:07;5.90;99.90
67379;DHT22;54262;44.642;-0.974;2024-01-10T08:12:34;5.90;99.90
67379;DHT22;54262;44.642;-0.974;2024-01-10T08:15:00;5.90;99.90
67379;DHT22;54262;44.642;-0.974;2024-01-10T08:17:25;5.90;99.90
67379;DHT22;54262;44.642;-0.974;2024-01-10T08:19:51;6.20;99.90
67379;DHT22;54262;44.642;-0.974;2024-01-10T08:22:17;6.10;99.90
67379;DHT22;54262;44.642;-0.974;2024-01-10T08:24:45;6.20;99.90
67379;DHT22;54262;44.642;-0.974;2024-01-10T08:27:10;6.20;99.90
67379;DHT22;54262;44.642;-0.974;2024-01-10T08:29:36;6.00;99.90
67379;DHT22;54262;44.642;-0.974;2024-01-10T08:32:01;6.00;99.90
67379;DHT22;54262;44.642;-0.974;2024-01-10T08:34:29;5.90;99.90
67379;DHT22;54262;44.642;-0.974;2024-01-10T08:36:54;5.70;99.90
67379;DHT22;54262;44.642;-0.974;2024-01-10T08:39:20;6.00;99.90
67379;DHT22;54262;44.642;-0.974;2024-01-10T08:41:47;5.90;99.90
67379;DHT22;54262;44.642;-0.974;2024-01-10T08:44:13;6.00;99.90
67379;DHT22;54262;44.642;-0.974;2024-01-10T08:46:39;6.10;99.90
67379;DHT22;54262;44.642;-0.974;2024-01-10T08:49:07;5.90;99.90
67379;DHT22;54262;44.642;-0.974;2024-01-10T08:51:32;6.10;99.90
67379;DHT22;54262;44.642;-0.974;2024-01-10T08:53:58;6.20;99.90
67379;DHT22;54262;44.642;-0.974;2024-01-10T08:56:26;6.20;99.90
67379;DHT22;54262;44.642;-0.974;2024-01-10T08:58:54;6.20;99.90
67379;DHT22;54262;44.642;-0.974;2024-01-10T09:01:20;6.30;99.90
67379;DHT22;54262;44.642;-0.974;2024-01-10T09:03:45;6.20;99.90
67379;DHT22;54262;44.642;-0.974;2024-01-10T09:06:11;6.10;99.90
67379;DHT22;54262;44.642;-0.974;2024-01-10T09:08:37;6.20;99.90
67379;DHT22;54262;44.642;-0.974;2024-01-10T09:11:02;6.60;99.90
67379;DHT22;54262;44.642;-0.974;2024-01-10T09:13:28;6.80;99.90
67379;DHT22;54262;44.642;-0.974;2024-01-10T09:15:54;6.40;99.90
67379;DHT22;54262;44.642;-0.974;2024-01-10T09:18:19;6.50;99.90
67379;DHT22;54262;44.642;-0.974;2024-01-10T09:20:45;6.20;99.90
67379;DHT22;54262;44.642;-0.974;2024-01-10T09:23:10;6.30;99.90
67379;DHT22;54262;44.642;-0.974;2024-01-10T09:25:36;6.40;99.90
67379;DHT22;54262;44.642;-0.974;2024-01-10T09:28:03;6.40;99.90
67379;DHT22;54262;44.642;-0.974;2024-01-10T09:30:29;6.80;99.90
67379;DHT22;54262;44.642;-0.974;2024-01-10T09:32:54;6.40;99.90
67379;DHT22;54262;44.642;-0.974;2024-01-10T09:35:22;6.40;99.90
67379;DHT22;54262;44.642;-0.974;2024-01-10T09:37:47;6.30;99.90
67379;DHT22;54262;44.642;-0.974;2024-01-10T09:40:14;6.30;99.90
67379;DHT22;54262;44.642;-0.974;2024-01-10T09:42:41;6.60;99.90
67379;DHT22;54262;44.642;-0.974;2024-01-10T09:45:07;6.50;99.90
67379;DHT22;54262;44.642;-0.974;2024-01-10T09:47:35;6.50;99.90
67379;DHT22;54262;44.642;-0.974;2024-01-10T09:50:03;6.50;99.90
67379;DHT22;54262;44.642;-0.974;2024-01-10T09:52:29;6.50;99.90
67379;DHT22;54262;44.642;-0.974;2024-01-10T09:54:59;6.50;99.90
67379;DHT22;54262;44.642;-0.974;2024-01-10T09:57:27;6.60;99.90
67379;DHT22;54262;44.642;-0.974;2024-01-10T09:59:53;6.80;99.90
67379;DHT22;54262;44.642;-0.974;2024-01-10T10:02:22;7.10;99.90
67379;DHT22;54262;44.642;-0.974;2024-01-10T10:05:30;7.00;99.90
67379;DHT22;54262;44.642;-0.974;2024-01-10T10:07:46;7.10;99.90
67379;DHT22;54262;44.642;-0.974;2024-01-10T10:10:12;7.00;99.90
67379;DHT22;54262;44.642;-0.974;2024-01-10T10:12:49;7.10;99.90
67379;DHT22;54262;44.642;-0.974;2024-01-10T10:15:19;7.10;99.90
67379;DHT22;54262;44.642;-0.974;2024-01-10T10:17:47;7.10;99.90
67379;DHT22;54262;44.642;-0.974;2024-01-10T10:20:14;7.00;99.90
67379;DHT22;54262;44.642;-0.974;2024-01-10T10:22:40;7.20;99.90
67379;DHT22;54262;44.642;-0.974;2024-01-10T10:25:05;7.30;99.90
67379;DHT22;54262;44.642;-0.974;2024-01-10T10:27:31;7.40;99.90
67379;DHT22;54262;44.642;-0.974;2024-01-10T10:29:57;7.20;99.90
67379;DHT22;54262;44.642;-0.974;2024-01-10T10:32:23;7.60;99.90
67379;DHT22;54262;44.642;-0.974;2024-01-10T10:34:48;7.50;99.90
67379;DHT22;54262;44.642;-0.974;2024-01-10T10:37:14;7.50;99.90
67379;DHT22;54262;44.642;-0.974;2024-01-10T10:39:40;7.40;99.90
67379;DHT22;54262;44.642;-0.974;2024-01-10T10:42:07;7.40;99.90
67379;DHT22;54262;44.642;-0.974;2024-01-10T10:44:32;7.40;99.90
67379;DHT22;54262;44.642;-0.974;2024-01-10T10:47:02;7.40;99.90
67379;DHT22;54262;44.642;-0.974;2024-01-10T10:49:29;7.70;99.90
67379;DHT22;54262;44.642;-0.974;2024-01-10T10:51:59;7.40;99.90
67379;DHT22;54262;44.642;-0.974;2024-01-10T10:54:28;7.40;99.90
67379;DHT22;54262;44.642;-0.974;2024-01-10T10:56:55;7.60;99.90
67379;DHT22;54262;44.642;-0.974;2024-01-10T10:59:25;7.60;99.90
67379;DHT22;54262;44.642;-0.974;2024-01-10T11:01:51;7.70;99.90
67379;DHT22;54262;44.642;-0.974;2024-01-10T11:04:17;7.80;99.90
67379;DHT22;54262;44.642;-0.974;2024-01-10T11:06:43;8.00;99.90
67379;DHT22;54262;44.642;-0.974;2024-01-10T11:09:08;8.20;99.90
67379;DHT22;54262;44.642;-0.974;2024-01-10T11:22:10;7.90;99.90
67379;DHT22;54262;44.642;-0.974;2024-01-10T11:24:41;8.50;99.90
67379;DHT22;54262;44.642;-0.974;2024-01-10T11:27:07;8.40;99.90
67379;DHT22;54262;44.642;-0.974;2024-01-10T11:29:36;8.00;99.90
67379;DHT22;54262;44.642;-0.974;2024-01-10T11:32:02;7.90;99.90
67379;DHT22;54262;44.642;-0.974;2024-01-10T11:34:38;7.80;99.90
67379;DHT22;54262;44.642;-0.974;2024-01-10T11:37:13;7.80;99.90
67379;DHT22;54262;44.642;-0.974;2024-01-10T11:39:42;7.70;99.90
67379;DHT22;54262;44.642;-0.974;2024-01-10T11:42:10;7.80;99.90
67379;DHT22;54262;44.642;-0.974;2024-01-10T11:44:57;7.80;99.90
67379;DHT22;54262;44.642;-0.974;2024-01-10T11:47:22;7.50;99.90
67379;DHT22;54262;44.642;-0.974;2024-01-10T11:49:54;7.50;99.90
67379;DHT22;54262;44.642;-0.974;2024-01-10T11:52:22;7.50;99.90
67379;DHT22;54262;44.642;-0.974;2024-01-10T11:54:51;7.50;99.90
67379;DHT22;54262;44.642;-0.974;2024-01-10T11:59:44;7.80;99.90
67379;DHT22;54262;44.642;-0.974;2024-01-10T12:02:11;7.80;99.90
67379;DHT22;54262;44.642;-0.974;2024-01-10T12:04:37;7.90;99.90
67379;DHT22;54262;44.642;-0.974;2024-01-10T12:07:03;7.90;99.90
67379;DHT22;54262;44.642;-0.974;2024-01-10T12:09:30;7.90;99.90
67379;DHT22;54262;44.642;-0.974;2024-01-10T12:11:56;7.80;99.90
67379;DHT22;54262;44.642;-0.974;2024-01-10T12:14:24;7.90;99.90
67379;DHT22;54262;44.642;-0.974;2024-01-10T12:16:51;8.00;99.90
67379;DHT22;54262;44.642;-0.974;2024-01-10T12:19:17;7.70;99.90
67379;DHT22;54262;44.642;-0.974;2024-01-10T12:21:42;7.70;99.90
67379;DHT22;54262;44.642;-0.974;2024-01-10T12:24:08;7.90;99.90
67379;DHT22;54262;44.642;-0.974;2024-01-10T12:26:33;7.90;99.90
67379;DHT22;54262;44.642;-0.974;2024-01-10T12:28:59;8.10;99.90
67379;DHT22;54262;44.642;-0.974;2024-01-10T12:31:28;8.00;99.90
67379;DHT22;54262;44.642;-0.974;2024-01-10T12:33:54;7.90;99.90
67379;DHT22;54262;44.642;-0.974;2024-01-10T12:36:20;7.90;99.90
67379;DHT22;54262;44.642;-0.974;2024-01-10T12:38:46;7.70;99.90
67379;DHT22;54262;44.642;-0.974;2024-01-10T12:41:12;7.70;99.90
67379;DHT22;54262;44.642;-0.974;2024-01-10T12:43:39;7.70;99.90
67379;DHT22;54262;44.642;-0.974;2024-01-10T12:46:06;7.80;99.90
67379;DHT22;54262;44.642;-0.974;2024-01-10T12:48:34;7.60;99.90
67379;DHT22;54262;44.642;-0.974;2024-01-10T12:51:04;7.60;99.90
67379;DHT22;54262;44.642;-0.974;2024-01-10T12:53:41;7.50;99.90
67379;DHT22;54262;44.642;-0.974;2024-01-10T12:56:07;7.70;99.90
67379;DHT22;54262;44.642;-0.974;2024-01-10T12:58:33;7.60;99.90
67379;DHT22;54262;44.642;-0.974;2024-01-10T13:01:01;7.80;99.90
67379;DHT22;54262;44.642;-0.974;2024-01-10T13:03:27;7.70;99.90
67379;DHT22;54262;44.642;-0.974;2024-01-10T13:05:52;7.80;99.90
67379;DHT22;54262;44.642;-0.974;2024-01-10T13:08:18;7.70;99.90
67379;DHT22;54262;44.642;-0.974;2024-01-10T13:10:47;7.70;99.90
67379;DHT22;54262;44.642;-0.974;2024-01-10T13:13:12;7.60;99.90
67379;DHT22;54262;44.642;-0.974;2024-01-10T13:15:38;7.60;99.90
67379;DHT22;54262;44.642;-0.974;2024-01-10T13:18:04;7.70;99.90
67379;DHT22;54262;44.642;-0.974;2024-01-10T13:20:29;7.50;99.90
67379;DHT22;54262;44.642;-0.974;2024-01-10T13:22:55;7.50;99.90
67379;DHT22;54262;44.642;-0.974;2024-01-10T13:25:20;7.50;99.90
67379;DHT22;54262;44.642;-0.974;2024-01-10T13:27:52;7.40;99.90
67379;DHT22;54262;44.642;-0.974;2024-01-10T13:30:18;7.40;99.90
67379;DHT22;54262;44.642;-0.974;2024-01-10T13:32:46;7.50;99.90
67379;DHT22;54262;44.642;-0.974;2024-01-10T13:35:15;7.40;99.90
67379;DHT22;54262;44.642;-0.974;2024-01-10T13:37:45;7.60;99.90
67379;DHT22;54262;44.642;-0.974;2024-01-10T13:40:10;7.70;99.90
67379;DHT22;54262;44.642;-0.974;2024-01-10T13:42:41;7.50;99.90
67379;DHT22;54262;44.642;-0.974;2024-01-10T13:45:07;7.50;99.90
67379;DHT22;54262;44.642;-0.974;2024-01-10T13:47:33;7.60;99.90
67379;DHT22;54262;44.642;-0.974;2024-01-10T13:49:59;7.50;99.90
67379;DHT22;54262;44.642;-0.974;2024-01-10T13:52:25;7.40;99.90
67379;DHT22;54262;44.642;-0.974;2024-01-10T13:54:53;7.40;99.90
67379;DHT22;54262;44.642;-0.974;2024-01-10T13:57:19;7.40;99.90
67379;DHT22;54262;44.642;-0.974;2024-01-10T13:59:44;7.40;99.90
67379;DHT22;54262;44.642;-0.974;2024-01-10T14:02:12;7.60;99.90
67379;DHT22;54262;44.642;-0.974;2024-01-10T14:04:37;7.40;99.90
67379;DHT22;54262;44.642;-0.974;2024-01-10T14:07:03;7.50;99.90
67379;DHT22;54262;44.642;-0.974;2024-01-10T14:09:29;7.50;99.90
67379;DHT22;54262;44.642;-0.974;2024-01-10T14:11:55;7.50;99.90
67379;DHT22;54262;44.642;-0.974;2024-01-10T14:14:26;7.40;99.90
67379;DHT22;54262;44.642;-0.974;2024-01-10T14:16:52;7.20;99.90
67379;DHT22;54262;44.642;-0.974;2024-01-10T14:19:17;7.30;99.90
67379;DHT22;54262;44.642;-0.974;2024-01-10T14:21:43;7.50;99.90
67379;DHT22;54262;44.642;-0.974;2024-01-10T14:24:09;7.50;99.90
67379;DHT22;54262;44.642;-0.974;2024-01-10T14:26:34;7.40;99.90
67379;DHT22;54262;44.642;-0.974;2024-01-10T14:29:00;7.40;99.90
67379;DHT22;54262;44.642;-0.974;2024-01-10T14:31:26;7.20;99.90
67379;DHT22;54262;44.642;-0.974;2024-01-10T14:33:51;7.10;99.90
67379;DHT22;54262;44.642;-0.974;2024-01-10T14:36:17;7.00;99.90
67379;DHT22;54262;44.642;-0.974;2024-01-10T14:38:42;7.10;99.90
67379;DHT22;54262;44.642;-0.974;2024-01-10T14:41:08;7.00;99.90
67379;DHT22;54262;44.642;-0.974;2024-01-10T14:43:37;7.00;99.90
67379;DHT22;54262;44.642;-0.974;2024-01-10T14:46:03;6.90;99.90
67379;DHT22;54262;44.642;-0.974;2024-01-10T14:48:30;7.00;99.90
67379;DHT22;54262;44.642;-0.974;2024-01-10T14:50:56;6.90;99.90
67379;DHT22;54262;44.642;-0.974;2024-01-10T14:53:22;7.00;99.90
67379;DHT22;54262;44.642;-0.974;2024-01-10T14:55:50;7.20;99.90
67379;DHT22;54262;44.642;-0.974;2024-01-10T14:58:15;7.10;99.90
67379;DHT22;54262;44.642;-0.974;2024-01-10T15:00:41;7.20;99.90
67379;DHT22;54262;44.642;-0.974;2024-01-10T15:03:09;7.20;99.90
67379;DHT22;54262;44.642;-0.974;2024-01-10T15:05:36;7.10;99.90
67379;DHT22;54262;44.642;-0.974;2024-01-10T15:08:02;7.10;99.90
67379;DHT22;54262;44.642;-0.974;2024-01-10T15:10:27;7.20;99.90
67379;DHT22;54262;44.642;-0.974;2024-01-10T15:12:53;7.00;99.90
67379;DHT22;54262;44.642;-0.974;2024-01-10T15:15:19;6.90;99.90
67379;DHT22;54262;44.642;-0.974;2024-01-10T15:17:44;6.80;99.90
67379;DHT22;54262;44.642;-0.974;2024-01-10T15:20:10;6.90;99.90
67379;DHT22;54262;44.642;-0.974;2024-01-10T15:22:36;6.90;99.90
67379;DHT22;54262;44.642;-0.974;2024-01-10T15:25:04;7.00;99.90
67379;DHT22;54262;44.642;-0.974;2024-01-10T15:27:30;6.80;99.90
67379;DHT22;54262;44.642;-0.974;2024-01-10T15:29:55;6.80;99.90
67379;DHT22;54262;44.642;-0.974;2024-01-10T15:32:21;7.00;99.90
67379;DHT22;54262;44.642;-0.974;2024-01-10T15:34:46;7.00;99.90
67379;DHT22;54262;44.642;-0.974;2024-01-10T15:37:12;7.20;99.90